sensor_id;sensor_type;location;lat;lon;timestamp;temperature;humidity
23703;DHT22;12030;50.376;8.762;2022-09-09T00:01:51;16.10;99.90
23703;DHT22;12030;50.376;8.762;2022-09-09T00:04:29;16.10;99.90
23703;DHT22;12030;50.376;8.762;2022-09-09T00:07:07;16.10;99.90
23703;DHT22;12030;50.376;8.762;2022-09-09T00:09:47;16.10;99.90
23703;DHT22;12030;50.376;8.762;2022-09-09T00:12:34;16.10;99.90
23703;DHT22;12030;50.376;8.762;2022-09-09T00:15:12;16.10;99.90
23703;DHT22;12030;50.376;8.762;2022-09-09T00:17:58;16.10;99.90
23703;DHT22;12030;50.376;8.762;2022-09-09T00:20:37;16.10;99.90
23703;DHT22;12030;50.376;8.762;2022-09-09T00:28:26;16.10;99.90
23703;DHT22;12030;50.376;8.762;2022-09-09T00:30:52;16.10;99.90
23703;DHT22;12030;50.376;8.762;2022-09-09T00:33:20;16.10;99.90
23703;DHT22;12030;50.376;8.762;2022-09-09T00:35:50;16.10;99.90
23703;DHT22;12030;50.376;8.762;2022-09-09T00:38:33;16.10;99.90
23703;DHT22;12030;50.376;8.762;2022-09-09T00:41:15;16.10;99.90
23703;DHT22;12030;50.376;8.762;2022-09-09T00:43:45;16.10;99.90
23703;DHT22;12030;50.376;8.762;2022-09-09T00:58:07;16.00;99.90
23703;DHT22;12030;50.376;8.762;2022-09-09T01:00:47;16.00;99.90
23703;DHT22;12030;50.376;8.762;2022-09-09T01:06:12;16.00;99.90
23703;DHT22;12030;50.376;8.762;2022-09-09T01:11:25;16.00;99.90
23703;DHT22;12030;50.376;8.762;2022-09-09T01:16:38;15.90;99.90
23703;DHT22;12030;50.376;8.762;2022-09-09T01:19:07;15.90;99.90
23703;DHT22;12030;50.376;8.762;2022-09-09T01:21:50;15.80;99.90
23703;DHT22;12030;50.376;8.762;2022-09-09T01:24:35;15.90;99.90
23703;DHT22;12030;50.376;8.762;2022-09-09T01:27:05;15.80;99.90
23703;DHT22;12030;50.376;8.762;2022-09-09T01:29:32;15.80;99.90
23703;DHT22;12030;50.376;8.762;2022-09-09T01:32:35;15.80;99.90
23703;DHT22;12030;50.376;8.762;2022-09-09T01:34:47;15.80;99.90
23703;DHT22;12030;50.376;8.762;2022-09-09T01:37:13;15.80;99.90
23703;DHT22;12030;50.376;8.762;2022-09-09T01:39:42;15.80;99.90
23703;DHT22;12030;50.376;8.762;2022-09-09T01:42:10;15.80;99.90
23703;DHT22;12030;50.376;8.762;2022-09-09T01:44:37;15.70;99.90
23703;DHT22;12030;50.376;8.762;2022-09-09T01:47:03;15.80;99.90
23703;DHT22;12030;50.376;8.762;2022-09-09T01:49:29;15.70;99.90
23703;DHT22;12030;50.376;8.762;2022-09-09T01:51:55;15.70;99.90
23703;DHT22;12030;50.376;8.762;2022-09-09T01:54:23;15.80;99.90
23703;DHT22;12030;50.376;8.762;2022-09-09T02:04:54;15.70;99.90
23703;DHT22;12030;50.376;8.762;2022-09-09T02:07:42;15.70;99.90
23703;DHT22;12030;50.376;8.762;2022-09-09T02:11:08;15.60;99.90
23703;DHT22;12030;50.376;8.762;2022-09-09T02:13:17;15.60;99.90
23703;DHT22;12030;50.376;8.762;2022-09-09T02:18:25;15.60;99.90
23703;DHT22;12030;50.376;8.762;2022-09-09T02:20:53;15.60;99.90
23703;DHT22;12030;50.376;8.762;2022-09-09T02:23:19;15.60;99.90
23703;DHT22;12030;50.376;8.762;2022-09-09T02:25:46;15.60;99.90
23703;DHT22;12030;50.376;8.762;2022-09-09T02:28:14;15.50;99.90
23703;DHT22;12030;50.376;8.762;2022-09-09T02:30:43;15.60;99.90
23703;DHT22;12030;50.376;8.762;2022-09-09T02:33:13;15.60;99.90
23703;DHT22;12030;50.376;8.762;2022-09-09T02:35:40;15.60;99.90
23703;DHT22;12030;50.376;8.762;2022-09-09T02:38:10;15.70;99.90
23703;DHT22;12030;50.376;8.762;2022-09-09T02:40:37;15.60;99.90
23703;DHT22;12030;50.376;8.762;2022-09-09T02:43:02;15.50;99.90
23703;DHT22;12030;50.376;8.762;2022-09-09T02:45:39;15.60;99.90
23703;DHT22;12030;50.376;8.762;2022-09-09T02:48:28;15.60;99.90
23703;DHT22;12030;50.376;8.762;2022-09-09T02:51:03;15.60;99.90
23703;DHT22;12030;50.376;8.762;2022-09-09T02:53:50;15.70;99.90
23703;DHT22;12030;50.376;8.762;2022-09-09T02:56:22;15.60;99.90
23703;DHT22;12030;50.376;8.762;2022-09-09T02:58:50;15.70;99.90
23703;DHT22;12030;50.376;8.762;2022-09-09T03:01:17;15.80;99.90
23703;DHT22;12030;50.376;8.762;2022-09-09T03:03:43;15.70;99.90
23703;DHT22;12030;50.376;8.762;2022-09-09T03:06:09;15.80;99.90
23703;DHT22;12030;50.376;8.762;2022-09-09T03:08:37;15.80;99.90
23703;DHT22;12030;50.376;8.762;2022-09-09T03:11:02;15.80;99.90
23703;DHT22;12030;50.376;8.762;2022-09-09T03:13:28;15.80;99.90
23703;DHT22;12030;50.376;8.762;2022-09-09T03:15:54;15.80;99.90
23703;DHT22;12030;50.376;8.762;2022-09-09T03:18:20;15.90;99.90
23703;DHT22;12030;50.376;8.762;2022-09-09T03:20:46;15.90;99.90
23703;DHT22;12030;50.376;8.762;2022-09-09T03:23:14;15.80;99.90
23703;DHT22;12030;50.376;8.762;2022-09-09T03:25:39;15.80;99.90
23703;DHT22;12030;50.376;8.762;2022-09-09T03:28:11;15.80;99.90
23703;DHT22;12030;50.376;8.762;2022-09-09T03:30:37;15.80;99.90
23703;DHT22;12030;50.376;8.762;2022-09-09T03:33:03;15.70;99.90
23703;DHT22;12030;50.376;8.762;2022-09-09T03:35:29;15.70;99.90
23703;DHT22;12030;50.376;8.762;2022-09-09T03:37:54;15.70;99.90
23703;DHT22;12030;50.376;8.762;2022-09-09T03:40:20;15.70;99.90
23703;DHT22;12030;50.376;8.762;2022-09-09T03:42:46;15.70;99.90
23703;DHT22;12030;50.376;8.762;2022-09-09T03:45:13;15.70;99.90
23703;DHT22;12030;50.376;8.762;2022-09-09T03:47:39;15.70;99.90
23703;DHT22;12030;50.376;8.762;2022-09-09T03:50:06;15.70;99.90
23703;DHT22;12030;50.376;8.762;2022-09-09T03:52:35;15.70;99.90
23703;DHT22;12030;50.376;8.762;2022-09-09T03:55:00;15.70;99.90
23703;DHT22;12030;50.376;8.762;2022-09-09T03:57:26;15.70;99.90
23703;DHT22;12030;50.376;8.762;2022-09-09T03:59:52;15.70;99.90
23703;DHT22;12030;50.376;8.762;2022-09-09T04:02:17;15.70;99.90
23703;DHT22;12030;50.376;8.762;2022-09-09T04:04:43;15.70;99.90
23703;DHT22;12030;50.376;8.762;2022-09-09T04:07:09;15.70;99.90
23703;DHT22;12030;50.376;8.762;2022-09-09T04:09:34;15.70;99.90
23703;DHT22;12030;50.376;8.762;2022-09-09T04:12:00;15.70;99.90
23703;DHT22;12030;50.376;8.762;2022-09-09T04:14:25;15.70;99.90
23703;DHT22;12030;50.376;8.762;2022-09-09T04:16:54;15.70;99.90
23703;DHT22;12030;50.376;8.762;2022-09-09T04:19:19;15.80;99.90
23703;DHT22;12030;50.376;8.762;2022-09-09T04:21:45;15.80;99.90
23703;DHT22;12030;50.376;8.762;2022-09-09T04:24:10;15.80;99.90
23703;DHT22;12030;50.376;8.762;2022-09-09T04:26:37;15.80;99.90
23703;DHT22;12030;50.376;8.762;2022-09-09T04:29:03;15.80;99.90
23703;DHT22;12030;50.376;8.762;2022-09-09T04:31:29;15.80;99.90
23703;DHT22;12030;50.376;8.762;2022-09-09T04:33:55;15.80;99.90
23703;DHT22;12030;50.376;8.762;2022-09-09T04:36:21;15.70;99.90
23703;DHT22;12030;50.376;8.762;2022-09-09T04:38:47;15.80;99.90
23703;DHT22;12030;50.376;8.762;2022-09-09T04:41:14;15.80;99.90
23703;DHT22;12030;50.376;8.762;2022-09-09T04:43:40;15.80;99.90
23703;DHT22;12030;50.376;8.762;2022-09-09T04:46:06;15.90;99.90
23703;DHT22;12030;50.376;8.762;2022-09-09T04:48:31;15.90;99.90
23703;DHT22;12030;50.376;8.762;2022-09-09T04:51:05;16.00;99.90
23703;DHT22;12030;50.376;8.762;2022-09-09T04:53:31;16.00;99.90
23703;DHT22;12030;50.376;8.762;2022-09-09T04:56:08;16.00;99.90
23703;DHT22;12030;50.376;8.762;2022-09-09T04:58:35;16.10;99.90
23703;DHT22;12030;50.376;8.762;2022-09-09T05:01:08;16.10;99.90
23703;DHT22;12030;50.376;8.762;2022-09-09T05:03:34;16.10;99.90
23703;DHT22;12030;50.376;8.762;2022-09-09T05:08:29;16.20;99.90
23703;DHT22;12030;50.376;8.762;2022-09-09T05:10:55;16.20;99.90
23703;DHT22;12030;50.376;8.762;2022-09-09T05:13:20;16.30;99.90
23703;DHT22;12030;50.376;8.762;2022-09-09T05:15:53;16.30;99.90
23703;DHT22;12030;50.376;8.762;2022-09-09T05:18:19;16.30;99.90
23703;DHT22;12030;50.376;8.762;2022-09-09T05:20:44;16.30;99.90
23703;DHT22;12030;50.376;8.762;2022-09-09T05:23:10;16.30;99.90
23703;DHT22;12030;50.376;8.762;2022-09-09T05:25:37;16.30;99.90
23703;DHT22;12030;50.376;8.762;2022-09-09T05:28:03;16.20;99.90
23703;DHT22;12030;50.376;8.762;2022-09-09T05:30:28;16.30;99.90
23703;DHT22;12030;50.376;8.762;2022-09-09T05:32:56;16.30;99.90
23703;DHT22;12030;50.376;8.762;2022-09-09T05:35:21;16.30;99.90
23703;DHT22;12030;50.376;8.762;2022-09-09T05:37:48;16.30;99.90
23703;DHT22;12030;50.376;8.762;2022-09-09T05:40:14;16.30;99.90
23703;DHT22;12030;50.376;8.762;2022-09-09T05:42:40;16.30;99.90
23703;DHT22;12030;50.376;8.762;2022-09-09T05:45:07;16.30;99.90
23703;DHT22;12030;50.376;8.762;2022-09-09T05:47:33;16.30;99.90
23703;DHT22;12030;50.376;8.762;2022-09-09T05:49:59;16.30;99.90
23703;DHT22;12030;50.376;8.762;2022-09-09T05:52:24;16.30;99.90
23703;DHT22;12030;50.376;8.762;2022-09-09T05:54:51;16.30;99.90
23703;DHT22;12030;50.376;8.762;2022-09-09T05:57:17;16.20;99.90
23703;DHT22;12030;50.376;8.762;2022-09-09T05:59:42;16.20;99.90
23703;DHT22;12030;50.376;8.762;2022-09-09T06:02:09;16.20;99.90
23703;DHT22;12030;50.376;8.762;2022-09-09T06:04:34;16.20;99.90
23703;DHT22;12030;50.376;8.762;2022-09-09T06:07:00;16.20;99.90
23703;DHT22;12030;50.376;8.762;2022-09-09T06:09:26;16.20;99.90
23703;DHT22;12030;50.376;8.762;2022-09-09T06:11:51;16.30;99.90
23703;DHT22;12030;50.376;8.762;2022-09-09T06:14:17;16.30;99.90
23703;DHT22;12030;50.376;8.762;2022-09-09T06:16:47;16.30;99.90
23703;DHT22;12030;50.376;8.762;2022-09-09T06:19:12;16.30;99.90
23703;DHT22;12030;50.376;8.762;2022-09-09T06:21:38;16.30;99.90
23703;DHT22;12030;50.376;8.762;2022-09-09T06:24:04;16.40;99.90
23703;DHT22;12030;50.376;8.762;2022-09-09T06:26:33;16.50;99.90
23703;DHT22;12030;50.376;8.762;2022-09-09T06:28:59;16.60;99.90
23703;DHT22;12030;50.376;8.762;2022-09-09T06:31:27;16.80;99.90
23703;DHT22;12030;50.376;8.762;2022-09-09T06:33:56;16.80;99.90
23703;DHT22;12030;50.376;8.762;2022-09-09T06:36:22;16.90;99.90
23703;DHT22;12030;50.376;8.762;2022-09-09T06:38:48;17.00;99.90
23703;DHT22;12030;50.376;8.762;2022-09-09T06:41:16;17.00;99.90
23703;DHT22;12030;50.376;8.762;2022-09-09T06:43:42;17.00;99.90
23703;DHT22;12030;50.376;8.762;2022-09-09T06:48:36;17.00;99.90
23703;DHT22;12030;50.376;8.762;2022-09-09T06:51:07;17.00;99.90
23703;DHT22;12030;50.376;8.762;2022-09-09T06:53:34;17.10;99.90
23703;DHT22;12030;50.376;8.762;2022-09-09T06:56:01;17.10;99.90
23703;DHT22;12030;50.376;8.762;2022-09-09T06:58:28;17.10;99.90
23703;DHT22;12030;50.376;8.762;2022-09-09T07:01:05;17.20;99.90
23703;DHT22;12030;50.376;8.762;2022-09-09T07:03:32;17.30;99.90
23703;DHT22;12030;50.376;8.762;2022-09-09T07:05:58;17.30;99.90
23703;DHT22;12030;50.376;8.762;2022-09-09T07:08:24;17.40;99.90
23703;DHT22;12030;50.376;8.762;2022-09-09T07:10:50;17.50;99.90
23703;DHT22;12030;50.376;8.762;2022-09-09T07:13:25;17.50;99.90
23703;DHT22;12030;50.376;8.762;2022-09-09T07:15:51;17.60;99.90
23703;DHT22;12030;50.376;8.762;2022-09-09T07:18:17;17.50;99.90
23703;DHT22;12030;50.376;8.762;2022-09-09T07:20:43;17.60;99.90
23703;DHT22;12030;50.376;8.762;2022-09-09T07:23:17;17.60;99.90
23703;DHT22;12030;50.376;8.762;2022-09-09T07:25:46;17.70;99.90
23703;DHT22;12030;50.376;8.762;2022-09-09T07:28:13;17.70;99.90
23703;DHT22;12030;50.376;8.762;2022-09-09T07:30:38;17.70;99.90
23703;DHT22;12030;50.376;8.762;2022-09-09T07:33:05;17.80;99.90
23703;DHT22;12030;50.376;8.762;2022-09-09T07:35:31;17.80;99.90
23703;DHT22;12030;50.376;8.762;2022-09-09T07:37:57;18.00;99.90
23703;DHT22;12030;50.376;8.762;2022-09-09T07:40:23;18.00;99.90
23703;DHT22;12030;50.376;8.762;2022-09-09T07:42:49;18.10;99.90
23703;DHT22;12030;50.376;8.762;2022-09-09T07:45:15;18.10;99.90
23703;DHT22;12030;50.376;8.762;2022-09-09T07:47:40;18.20;99.90
23703;DHT22;12030;50.376;8.762;2022-09-09T07:50:10;18.20;99.90
23703;DHT22;12030;50.376;8.762;2022-09-09T07:52:36;18.20;99.90
23703;DHT22;12030;50.376;8.762;2022-09-09T07:55:02;18.20;99.90
23703;DHT22;12030;50.376;8.762;2022-09-09T07:57:29;18.30;99.90
23703;DHT22;12030;50.376;8.762;2022-09-09T07:59:56;18.20;99.90
23703;DHT22;12030;50.376;8.762;2022-09-09T08:02:22;18.30;99.90
23703;DHT22;12030;50.376;8.762;2022-09-09T08:04:48;18.40;99.90
23703;DHT22;12030;50.376;8.762;2022-09-09T08:07:15;18.50;99.90
23703;DHT22;12030;50.376;8.762;2022-09-09T08:09:41;18.60;99.90
23703;DHT22;12030;50.376;8.762;2022-09-09T08:12:07;18.60;99.90
23703;DHT22;12030;50.376;8.762;2022-09-09T08:14:33;18.70;99.90
23703;DHT22;12030;50.376;8.762;2022-09-09T08:16:59;18.70;99.90
23703;DHT22;12030;50.376;8.762;2022-09-09T08:19:25;18.70;99.90
23703;DHT22;12030;50.376;8.762;2022-09-09T08:21:50;18.70;99.90
23703;DHT22;12030;50.376;8.762;2022-09-09T08:24:16;18.60;99.90
23703;DHT22;12030;50.376;8.762;2022-09-09T08:26:44;18.70;99.90
23703;DHT22;12030;50.376;8.762;2022-09-09T08:29:11;18.70;99.90
23703;DHT22;12030;50.376;8.762;2022-09-09T08:31:47;18.90;99.90
23703;DHT22;12030;50.376;8.762;2022-09-09T08:34:13;18.90;99.90
23703;DHT22;12030;50.376;8.762;2022-09-09T08:36:44;18.90;99.90
23703;DHT22;12030;50.376;8.762;2022-09-09T08:39:11;18.80;99.90
23703;DHT22;12030;50.376;8.762;2022-09-09T08:50:17;18.90;99.90
23703;DHT22;12030;50.376;8.762;2022-09-09T08:57:52;19.10;99.90
23703;DHT22;12030;50.376;8.762;2022-09-09T09:00:19;19.10;99.90
23703;DHT22;12030;50.376;8.762;2022-09-09T09:05:27;19.30;99.90
23703;DHT22;12030;50.376;8.762;2022-09-09T09:10:53;19.60;99.90
23703;DHT22;12030;50.376;8.762;2022-09-09T09:14:00;19.60;99.90
23703;DHT22;12030;50.376;8.762;2022-09-09T09:16:40;19.70;99.90
23703;DHT22;12030;50.376;8.762;2022-09-09T09:19:13;19.60;99.90
23703;DHT22;12030;50.376;8.762;2022-09-09T09:22:25;19.60;99.90
23703;DHT22;12030;50.376;8.762;2022-09-09T09:27:16;19.50;99.90
23703;DHT22;12030;50.376;8.762;2022-09-09T09:29:44;19.40;99.90
23703;DHT22;12030;50.376;8.762;2022-09-09T09:32:14;19.20;99.90
23703;DHT22;12030;50.376;8.762;2022-09-09T09:34:41;18.80;99.90
23703;DHT22;12030;50.376;8.762;2022-09-09T09:37:16;18.50;99.90
23703;DHT22;12030;50.376;8.762;2022-09-09T09:39:45;18.30;99.90
23703;DHT22;12030;50.376;8.762;2022-09-09T09:42:15;18.10;99.90
23703;DHT22;12030;50.376;8.762;2022-09-09T09:44:43;18.10;99.90
23703;DHT22;12030;50.376;8.762;2022-09-09T09:47:17;18.00;99.90
23703;DHT22;12030;50.376;8.762;2022-09-09T09:49:57;17.90;99.90
23703;DHT22;12030;50.376;8.762;2022-09-09T09:52:26;18.00;99.90
23703;DHT22;12030;50.376;8.762;2022-09-09T09:54:54;18.00;99.90
23703;DHT22;12030;50.376;8.762;2022-09-09T09:57:25;17.90;99.90
23703;DHT22;12030;50.376;8.762;2022-09-09T10:00:14;17.80;99.90
23703;DHT22;12030;50.376;8.762;2022-09-09T10:02:42;17.80;99.90
23703;DHT22;12030;50.376;8.762;2022-09-09T10:07:37;18.00;99.90
23703;DHT22;12030;50.376;8.762;2022-09-09T10:10:04;18.00;99.90
23703;DHT22;12030;50.376;8.762;2022-09-09T10:19:13;18.10;99.90
23703;DHT22;12030;50.376;8.762;2022-09-09T10:30:17;18.30;99.90
23703;DHT22;12030;50.376;8.762;2022-09-09T10:32:56;18.20;99.90
23703;DHT22;12030;50.376;8.762;2022-09-09T10:43:44;18.70;99.90
23703;DHT22;12030;50.376;8.762;2022-09-09T10:49:32;19.20;99.90
23703;DHT22;12030;50.376;8.762;2022-09-09T10:52:24;19.50;99.90
23703;DHT22;12030;50.376;8.762;2022-09-09T10:55:13;19.70;99.90
23703;DHT22;12030;50.376;8.762;2022-09-09T10:57:48;19.90;99.90
23703;DHT22;12030;50.376;8.762;2022-09-09T11:00:19;20.10;99.90
23703;DHT22;12030;50.376;8.762;2022-09-09T11:02:53;20.30;99.90
23703;DHT22;12030;50.376;8.762;2022-09-09T11:08:15;20.60;99.90
23703;DHT22;12030;50.376;8.762;2022-09-09T11:11:06;20.80;99.90
23703;DHT22;12030;50.376;8.762;2022-09-09T11:13:42;20.90;99.90
23703;DHT22;12030;50.376;8.762;2022-09-09T11:18:57;20.80;99.90
23703;DHT22;12030;50.376;8.762;2022-09-09T11:21:29;20.70;99.90
23703;DHT22;12030;50.376;8.762;2022-09-09T11:24:04;20.60;99.90
23703;DHT22;12030;50.376;8.762;2022-09-09T11:26:43;20.60;99.90
23703;DHT22;12030;50.376;8.762;2022-09-09T11:40:00;20.70;99.90
23703;DHT22;12030;50.376;8.762;2022-09-09T11:42:32;20.80;99.90
23703;DHT22;12030;50.376;8.762;2022-09-09T11:45:09;20.80;99.90
23703;DHT22;12030;50.376;8.762;2022-09-09T11:47:36;20.70;99.90
23703;DHT22;12030;50.376;8.762;2022-09-09T11:52:45;20.80;99.90
23703;DHT22;12030;50.376;8.762;2022-09-09T11:58:00;21.10;99.90
23703;DHT22;12030;50.376;8.762;2022-09-09T12:00:35;21.10;99.90
23703;DHT22;12030;50.376;8.762;2022-09-09T12:03:05;21.00;99.90
23703;DHT22;12030;50.376;8.762;2022-09-09T12:05:39;21.00;99.90
23703;DHT22;12030;50.376;8.762;2022-09-09T12:08:09;21.00;99.90
23703;DHT22;12030;50.376;8.762;2022-09-09T12:10:39;21.00;99.90
23703;DHT22;12030;50.376;8.762;2022-09-09T12:13:22;21.00;99.90
23703;DHT22;12030;50.376;8.762;2022-09-09T12:15:56;21.10;99.90
23703;DHT22;12030;50.376;8.762;2022-09-09T12:18:32;21.10;99.90
23703;DHT22;12030;50.376;8.762;2022-09-09T12:21:08;21.10;99.90
23703;DHT22;12030;50.376;8.762;2022-09-09T12:23:50;21.20;99.90
23703;DHT22;12030;50.376;8.762;2022-09-09T12:26:59;21.20;99.90
23703;DHT22;12030;50.376;8.762;2022-09-09T12:29:29;21.30;99.90
23703;DHT22;12030;50.376;8.762;2022-09-09T12:32:09;21.50;99.90
23703;DHT22;12030;50.376;8.762;2022-09-09T12:39:59;21.50;99.90
23703;DHT22;12030;50.376;8.762;2022-09-09T12:42:26;21.60;99.90
23703;DHT22;12030;50.376;8.762;2022-09-09T12:47:20;21.50;99.90
23703;DHT22;12030;50.376;8.762;2022-09-09T12:49:47;21.60;99.90
23703;DHT22;12030;50.376;8.762;2022-09-09T12:52:23;21.80;99.90
23703;DHT22;12030;50.376;8.762;2022-09-09T12:54:50;21.80;99.90
23703;DHT22;12030;50.376;8.762;2022-09-09T12:57:19;21.80;99.90
23703;DHT22;12030;50.376;8.762;2022-09-09T12:59:47;21.60;99.90
23703;DHT22;12030;50.376;8.762;2022-09-09T13:02:25;21.50;99.90
23703;DHT22;12030;50.376;8.762;2022-09-09T13:04:51;21.60;99.90
23703;DHT22;12030;50.376;8.762;2022-09-09T13:07:18;21.80;99.90
23703;DHT22;12030;50.376;8.762;2022-09-09T13:09:45;22.30;99.90
23703;DHT22;12030;50.376;8.762;2022-09-09T13:12:22;22.70;99.90
23703;DHT22;12030;50.376;8.762;2022-09-09T13:14:51;22.90;99.90
23703;DHT22;12030;50.376;8.762;2022-09-09T13:17:24;22.80;99.90
23703;DHT22;12030;50.376;8.762;2022-09-09T13:19:51;22.70;99.90
23703;DHT22;12030;50.376;8.762;2022-09-09T13:22:50;22.70;99.90
23703;DHT22;12030;50.376;8.762;2022-09-09T13:25:26;22.70;99.90
23703;DHT22;12030;50.376;8.762;2022-09-09T13:28:20;22.60;99.90
23703;DHT22;12030;50.376;8.762;2022-09-09T13:30:56;22.80;99.90
23703;DHT22;12030;50.376;8.762;2022-09-09T13:33:37;22.90;99.20
23703;DHT22;12030;50.376;8.762;2022-09-09T13:36:11;23.30;99.10
23703;DHT22;12030;50.376;8.762;2022-09-09T13:41:08;23.30;99.20
23703;DHT22;12030;50.376;8.762;2022-09-09T13:43:45;23.10;98.00
23703;DHT22;12030;50.376;8.762;2022-09-09T13:46:32;22.80;99.00
23703;DHT22;12030;50.376;8.762;2022-09-09T13:51:39;23.60;99.90
23703;DHT22;12030;50.376;8.762;2022-09-09T13:54:09;23.50;98.60
23703;DHT22;12030;50.376;8.762;2022-09-09T13:56:35;23.40;99.60
23703;DHT22;12030;50.376;8.762;2022-09-09T13:59:03;23.10;99.80
23703;DHT22;12030;50.376;8.762;2022-09-09T14:01:29;22.70;99.90
23703;DHT22;12030;50.376;8.762;2022-09-09T14:03:55;22.80;99.80
23703;DHT22;12030;50.376;8.762;2022-09-09T14:06:21;23.00;99.90
23703;DHT22;12030;50.376;8.762;2022-09-09T14:08:50;23.40;99.80
23703;DHT22;12030;50.376;8.762;2022-09-09T14:11:17;23.70;99.00
23703;DHT22;12030;50.376;8.762;2022-09-09T14:13:42;23.90;99.10
23703;DHT22;12030;50.376;8.762;2022-09-09T14:16:08;24.10;99.30
23703;DHT22;12030;50.376;8.762;2022-09-09T14:18:34;24.10;98.90
23703;DHT22;12030;50.376;8.762;2022-09-09T14:21:00;24.20;98.90
23703;DHT22;12030;50.376;8.762;2022-09-09T14:23:28;24.10;98.30
23703;DHT22;12030;50.376;8.762;2022-09-09T14:25:54;24.10;98.50
23703;DHT22;12030;50.376;8.762;2022-09-09T14:28:20;24.20;99.00
23703;DHT22;12030;50.376;8.762;2022-09-09T14:30:45;24.00;98.60
23703;DHT22;12030;50.376;8.762;2022-09-09T14:33:13;23.40;98.70
23703;DHT22;12030;50.376;8.762;2022-09-09T14:35:39;23.00;99.50
23703;DHT22;12030;50.376;8.762;2022-09-09T14:38:07;22.70;99.90
23703;DHT22;12030;50.376;8.762;2022-09-09T14:40:37;22.20;99.90
23703;DHT22;12030;50.376;8.762;2022-09-09T14:43:03;21.90;99.90
23703;DHT22;12030;50.376;8.762;2022-09-09T14:45:29;21.60;99.90
23703;DHT22;12030;50.376;8.762;2022-09-09T14:47:54;21.40;99.90
23703;DHT22;12030;50.376;8.762;2022-09-09T14:50:22;21.20;99.90
23703;DHT22;12030;50.376;8.762;2022-09-09T14:52:48;21.20;99.90
23703;DHT22;12030;50.376;8.762;2022-09-09T14:55:14;21.00;99.90
23703;DHT22;12030;50.376;8.762;2022-09-09T14:57:40;20.90;99.90
23703;DHT22;12030;50.376;8.762;2022-09-09T15:00:07;20.80;99.90
23703;DHT22;12030;50.376;8.762;2022-09-09T15:02:33;20.70;99.90
23703;DHT22;12030;50.376;8.762;2022-09-09T15:04:59;20.70;99.90
23703;DHT22;12030;50.376;8.762;2022-09-09T15:07:25;20.60;99.90
23703;DHT22;12030;50.376;8.762;2022-09-09T15:09:51;20.60;99.90
23703;DHT22;12030;50.376;8.762;2022-09-09T15:12:18;20.60;99.90
23703;DHT22;12030;50.376;8.762;2022-09-09T15:14:46;20.50;99.90
23703;DHT22;12030;50.376;8.762;2022-09-09T15:17:12;20.50;99.90
23703;DHT22;12030;50.376;8.762;2022-09-09T15:19:38;20.40;99.90
23703;DHT22;12030;50.376;8.762;2022-09-09T15:22:04;20.40;99.90
23703;DHT22;12030;50.376;8.762;2022-09-09T15:24:33;20.40;99.90
23703;DHT22;12030;50.376;8.762;2022-09-09T15:27:00;20.40;99.90
23703;DHT22;12030;50.376;8.762;2022-09-09T15:29:26;20.80;99.90
23703;DHT22;12030;50.376;8.762;2022-09-09T15:31:53;20.90;99.90
23703;DHT22;12030;50.376;8.762;2022-09-09T15:34:19;21.10;99.90
23703;DHT22;12030;50.376;8.762;2022-09-09T15:36:45;21.70;99.90
23703;DHT22;12030;50.376;8.762;2022-09-09T15:39:16;22.40;99.90
23703;DHT22;12030;50.376;8.762;2022-09-09T15:41:42;23.00;99.90
23703;DHT22;12030;50.376;8.762;2022-09-09T15:44:09;23.50;99.90
23703;DHT22;12030;50.376;8.762;2022-09-09T15:46:52;23.80;99.90
23703;DHT22;12030;50.376;8.762;2022-09-09T15:49:23;23.90;98.80
23703;DHT22;12030;50.376;8.762;2022-09-09T15:51:54;23.50;98.50
23703;DHT22;12030;50.376;8.762;2022-09-09T15:54:22;23.20;98.50
23703;DHT22;12030;50.376;8.762;2022-09-09T15:56:53;22.70;99.10
23703;DHT22;12030;50.376;8.762;2022-09-09T15:59:21;22.30;99.90
23703;DHT22;12030;50.376;8.762;2022-09-09T16:01:47;21.80;99.90
23703;DHT22;12030;50.376;8.762;2022-09-09T16:04:12;21.40;99.90
23703;DHT22;12030;50.376;8.762;2022-09-09T16:06:38;21.10;99.90
23703;DHT22;12030;50.376;8.762;2022-09-09T16:09:05;20.80;99.90
23703;DHT22;12030;50.376;8.762;2022-09-09T16:11:33;20.60;99.90
23703;DHT22;12030;50.376;8.762;2022-09-09T16:14:00;20.40;99.90
23703;DHT22;12030;50.376;8.762;2022-09-09T16:16:28;20.30;99.90
23703;DHT22;12030;50.376;8.762;2022-09-09T16:18:55;20.10;99.90
23703;DHT22;12030;50.376;8.762;2022-09-09T16:21:24;20.10;99.90
23703;DHT22;12030;50.376;8.762;2022-09-09T16:23:51;20.00;99.90
23703;DHT22;12030;50.376;8.762;2022-09-09T16:26:19;19.90;99.90
23703;DHT22;12030;50.376;8.762;2022-09-09T16:28:45;19.80;99.90
23703;DHT22;12030;50.376;8.762;2022-09-09T16:31:19;19.70;99.90
23703;DHT22;12030;50.376;8.762;2022-09-09T16:33:45;19.60;99.90
23703;DHT22;12030;50.376;8.762;2022-09-09T16:36:20;19.40;99.90
23703;DHT22;12030;50.376;8.762;2022-09-09T16:38:46;19.40;99.90
23703;DHT22;12030;50.376;8.762;2022-09-09T16:41:13;19.30;99.90
23703;DHT22;12030;50.376;8.762;2022-09-09T16:43:39;19.30;99.90
23703;DHT22;12030;50.376;8.762;2022-09-09T16:46:17;19.30;99.90
23703;DHT22;12030;50.376;8.762;2022-09-09T16:48:44;19.20;99.90
23703;DHT22;12030;50.376;8.762;2022-09-09T16:51:19;19.20;99.90
23703;DHT22;12030;50.376;8.762;2022-09-09T16:53:45;19.20;99.90
23703;DHT22;12030;50.376;8.762;2022-09-09T16:56:13;19.20;99.90
23703;DHT22;12030;50.376;8.762;2022-09-09T16:58:40;19.20;99.90
23703;DHT22;12030;50.376;8.762;2022-09-09T17:01:08;19.20;99.90
23703;DHT22;12030;50.376;8.762;2022-09-09T17:03:35;19.10;99.90
23703;DHT22;12030;50.376;8.762;2022-09-09T17:06:02;19.10;99.90
23703;DHT22;12030;50.376;8.762;2022-09-09T17:08:29;19.10;99.90
23703;DHT22;12030;50.376;8.762;2022-09-09T17:10:55;19.00;99.90
23703;DHT22;12030;50.376;8.762;2022-09-09T17:13:21;19.00;99.90
23703;DHT22;12030;50.376;8.762;2022-09-09T17:15:47;18.90;99.90
23703;DHT22;12030;50.376;8.762;2022-09-09T17:18:13;18.90;99.90
23703;DHT22;12030;50.376;8.762;2022-09-09T17:20:40;18.80;99.90
23703;DHT22;12030;50.376;8.762;2022-09-09T17:23:07;18.80;99.90
23703;DHT22;12030;50.376;8.762;2022-09-09T17:25:32;18.80;99.90
23703;DHT22;12030;50.376;8.762;2022-09-09T17:27:58;18.80;99.90
23703;DHT22;12030;50.376;8.762;2022-09-09T17:30:25;18.80;99.90
23703;DHT22;12030;50.376;8.762;2022-09-09T17:32:51;18.70;99.90
23703;DHT22;12030;50.376;8.762;2022-09-09T17:35:16;18.80;99.90
23703;DHT22;12030;50.376;8.762;2022-09-09T17:37:43;18.90;99.90
23703;DHT22;12030;50.376;8.762;2022-09-09T17:40:09;18.80;99.90
23703;DHT22;12030;50.376;8.762;2022-09-09T17:42:35;18.90;99.90
23703;DHT22;12030;50.376;8.762;2022-09-09T17:45:00;18.80;99.90
23703;DHT22;12030;50.376;8.762;2022-09-09T17:47:26;18.80;99.90
23703;DHT22;12030;50.376;8.762;2022-09-09T17:49:53;18.70;99.90
23703;DHT22;12030;50.376;8.762;2022-09-09T17:52:19;18.80;99.90